Time;durP1;ratioP1;P1;durP2;ratioP2;P2;SDS_P1;SDS_P2;PMS_P1;PMS_P2;Temp;Humidity;BMP_temperature;BMP_pressure;BME280_temperature;BME280_humidity;BME280_pressure;Samples;Min_cycle;Max_cycle;Signal;HPM_P1;HPM_P2
2022/07/14 00:02:57;;;;;;;2.90;1.98;;;23.90;56.80;;;;;;6110975;28;80119;-64
2022/07/14 00:05:57;;;;;;;1.70;1.50;;;23.90;56.70;;;;;;6110714;28;80545;-64
2022/07/14 00:08:58;;;;;;;1.77;1.42;;;23.90;56.70;;;;;;6109902;28;80549;-64
2022/07/14 00:11:58;;;;;;;1.75;1.55;;;23.90;56.70;;;;;;6103430;28;81453;-63
2022/07/14 00:14:59;;;;;;;2.58;1.95;;;23.90;56.70;;;;;;6110489;28;80971;-64
2022/07/14 00:18:00;;;;;;;2.17;1.77;;;23.90;56.70;;;;;;6085124;28;81123;-63
2022/07/14 00:21:00;;;;;;;2.53;1.90;;;23.90;56.60;;;;;;6124077;28;81906;-64
2022/07/14 00:24:00;;;;;;;2.10;1.88;;;23.90;56.60;;;;;;6105525;28;81598;-64
2022/07/14 00:27:01;;;;;;;2.28;1.63;;;23.90;57.30;;;;;;6108034;28;80182;-64
2022/07/14 00:30:01;;;;;;;2.22;1.80;;;23.90;56.60;;;;;;6108014;28;80393;-64
2022/07/14 00:33:02;;;;;;;3.08;1.80;;;23.90;56.70;;;;;;6111664;28;80719;-64
2022/07/14 00:36:03;;;;;;;2.05;1.80;;;23.90;56.60;;;;;;6111786;28;80646;-64
2022/07/14 00:39:03;;;;;;;2.63;1.80;;;23.90;56.60;;;;;;6119920;28;80706;-64
2022/07/14 00:42:04;;;;;;;2.28;1.73;;;23.90;56.60;;;;;;6110120;28;80243;-64
2022/07/14 00:45:04;;;;;;;2.45;1.85;;;23.90;56.60;;;;;;6108561;28;82252;-65
2022/07/14 00:48:06;;;;;;;3.25;1.90;;;23.90;56.60;;;;;;6114281;28;81816;-64
2022/07/14 00:51:07;;;;;;;1.58;1.48;;;23.90;56.60;;;;;;6111729;28;80451;-64
2022/07/14 00:54:07;;;;;;;2.97;1.80;;;23.90;56.60;;;;;;6114186;28;80684;-65
2022/07/14 00:57:07;;;;;;;2.20;1.67;;;23.90;56.50;;;;;;6113221;28;85463;-64
2022/07/14 01:00:08;;;;;;;1.85;1.67;;;23.90;56.50;;;;;;6124316;28;80250;-64
2022/07/14 01:03:09;;;;;;;4.32;1.90;;;23.90;56.50;;;;;;6116290;28;80183;-65
2022/07/14 01:06:09;;;;;;;3.38;1.98;;;23.90;56.50;;;;;;6116037;28;80332;-65
2022/07/14 01:09:10;;;;;;;2.63;1.85;;;23.90;56.50;;;;;;6110110;28;84826;-70
2022/07/14 01:12:10;;;;;;;3.60;1.85;;;23.90;56.40;;;;;;6099799;28;80023;-66
2022/07/14 01:15:11;;;;;;;2.25;1.90;;;23.90;56.40;;;;;;6107050;28;80303;-66
2022/07/14 01:18:11;;;;;;;1.98;1.60;;;23.90;56.50;;;;;;6094255;28;79897;-65
2022/07/14 01:21:12;;;;;;;2.88;1.55;;;23.90;56.50;;;;;;6094492;28;80872;-66
2022/07/14 01:24:12;;;;;;;4.30;2.25;;;23.90;56.50;;;;;;6101190;28;83177;-66
2022/07/14 01:27:13;;;;;;;2.42;1.85;;;23.90;56.50;;;;;;6113460;28;80988;-65
2022/07/14 01:30:13;;;;;;;1.75;1.63;;;23.90;56.50;;;;;;6113224;28;80143;-64
2022/07/14 01:33:14;;;;;;;2.08;1.52;;;23.90;56.50;;;;;;6103258;28;81565;-64
2022/07/14 01:36:15;;;;;;;2.03;1.83;;;23.90;56.50;;;;;;6095185;28;82121;-64
2022/07/14 01:39:15;;;;;;;2.28;1.65;;;23.80;56.40;;;;;;6080138;28;81181;-64
2022/07/14 01:42:17;;;;;;;2.45;1.65;;;23.80;56.50;;;;;;6110228;28;82199;-64
2022/07/14 01:45:17;;;;;;;4.57;2.33;;;23.90;56.50;;;;;;6103485;28;81395;-64
2022/07/14 01:48:18;;;;;;;4.38;1.92;;;23.90;56.50;;;;;;6111438;28;83211;-64
2022/07/14 01:51:19;;;;;;;2.70;1.92;;;23.80;56.50;;;;;;6112689;28;80083;-64
2022/07/14 01:54:19;;;;;;;2.20;1.80;;;23.90;56.50;;;;;;6111375;28;80164;-64
2022/07/14 01:57:20;;;;;;;2.50;1.80;;;23.80;56.40;;;;;;6098174;28;80515;-62
2022/07/14 02:00:20;;;;;;;2.25;1.50;;;23.80;56.40;;;;;;6094279;28;83282;-63
2022/07/14 02:03:25;;;;;;;2.40;1.87;;;23.80;56.40;;;;;;6112721;28;83971;-64
2022/07/14 02:06:29;;;;;;;2.85;1.92;;;23.90;56.50;;;;;;6096706;28;83003;-64
2022/07/14 02:12:48;;;;;;;2.92;2.13;;;23.80;56.40;;;;;;6110910;28;83211;-63
2022/07/14 02:15:49;;;;;;;2.53;1.50;;;23.80;56.40;;;;;;6124826;28;80315;-63
2022/07/14 02:18:50;;;;;;;1.92;1.55;;;23.80;56.40;;;;;;6111928;28;82157;-64
2022/07/14 02:21:51;;;;;;;1.70;1.48;;;23.80;56.40;;;;;;6111207;28;83321;-65
2022/07/14 02:24:51;;;;;;;2.15;1.50;;;23.80;56.40;;;;;;6109761;28;81773;-64
2022/07/14 02:27:52;;;;;;;1.80;1.45;;;23.80;56.40;;;;;;6110595;28;81879;-64
2022/07/14 02:30:55;;;;;;;2.30;1.88;;;23.80;56.40;;;;;;6099864;28;81009;-64
2022/07/14 02:33:55;;;;;;;1.88;1.65;;;23.90;56.40;;;;;;6111271;28;80674;-64
2022/07/14 02:36:56;;;;;;;2.15;1.70;;;23.80;56.30;;;;;;6111950;28;80287;-64
2022/07/14 02:39:56;;;;;;;2.05;1.80;;;23.80;56.30;;;;;;6109151;28;81939;-64
2022/07/14 02:42:57;;;;;;;3.15;1.90;;;23.80;56.30;;;;;;6110558;28;82045;-64
2022/07/14 02:45:58;;;;;;;1.98;1.50;;;23.80;56.20;;;;;;6108998;28;83155;-64
2022/07/14 02:48:58;;;;;;;2.38;1.85;;;23.80;56.10;;;;;;6110905;28;83532;-63
2022/07/14 02:52:00;;;;;;;2.15;1.50;;;23.80;56.20;;;;;;6108824;28;83308;-63
2022/07/14 02:55:00;;;;;;;2.53;1.83;;;23.80;56.20;;;;;;6110115;28;80345;-63
2022/07/14 02:58:04;;;;;;;3.30;1.65;;;23.70;56.20;;;;;;6107378;28;83048;-64
2022/07/14 03:01:05;;;;;;;1.90;1.65;;;23.80;56.20;;;;;;6110072;28;80528;-64
2022/07/14 03:04:06;;;;;;;2.88;1.92;;;23.70;56.10;;;;;;6107726;28;83833;-64
2022/07/14 03:07:07;;;;;;;2.17;1.65;;;23.80;56.20;;;;;;6109308;28;80608;-62
2022/07/14 03:10:08;;;;;;;3.22;1.90;;;23.70;56.10;;;;;;6095132;28;82939;-63
2022/07/14 03:13:08;;;;;;;3.10;1.77;;;23.80;56.10;;;;;;6110386;28;80200;-63
2022/07/14 03:16:10;;;;;;;3.72;1.95;;;23.80;56.10;;;;;;6108201;28;83235;-63
2022/07/14 03:19:14;;;;;;;3.85;2.13;;;23.80;56.10;;;;;;6106885;28;83149;-64
2022/07/14 03:22:16;;;;;;;6.85;2.03;;;23.80;56.10;;;;;;6107777;28;81741;-72
2022/07/14 03:25:16;;;;;;;5.65;2.38;;;23.80;56.20;;;;;;6100470;28;82016;-67
2022/07/14 03:28:17;;;;;;;1.55;1.40;;;23.70;56.30;;;;;;6095968;28;83235;-68
2022/07/14 03:31:18;;;;;;;3.53;1.60;;;23.80;56.60;;;;;;6099638;28;82257;-68
2022/07/14 03:34:19;;;;;;;2.53;1.75;;;23.80;56.70;;;;;;6108539;28;82732;-73
2022/07/14 03:37:21;;;;;;;2.08;1.83;;;23.80;56.70;;;;;;6105482;28;82411;-74
2022/07/14 03:40:27;;;;;;;2.70;2.05;;;23.80;57.00;;;;;;6105353;28;81931;-77
2022/07/14 03:43:28;;;;;;;2.45;1.75;;;23.80;57.00;;;;;;6108067;28;82797;-63
2022/07/14 03:46:29;;;;;;;3.17;1.87;;;23.80;57.00;;;;;;6065336;28;1196489;-68
2022/07/14 03:49:37;;;;;;;8.50;1.98;;;23.90;57.10;;;;;;6119485;28;83604;-63
2022/07/14 03:52:39;;;;;;;4.47;1.55;;;23.90;57.10;;;;;;6113977;28;82945;-63
2022/07/14 03:55:40;;;;;;;2.33;1.65;;;23.90;56.90;;;;;;6108607;28;82738;-62
2022/07/14 03:58:41;;;;;;;2.58;1.65;;;23.90;57.00;;;;;;6110066;28;80604;-62
2022/07/14 04:01:41;;;;;;;5.85;2.38;;;23.90;57.10;;;;;;6109012;28;83393;-62
2022/07/14 04:04:42;;;;;;;4.88;1.80;;;23.90;57.20;;;;;;6101562;28;81922;-61
2022/07/14 04:07:43;;;;;;;4.15;1.70;;;23.90;57.20;;;;;;6105651;28;81605;-62
2022/07/14 04:10:44;;;;;;;1.90;1.38;;;23.90;57.40;;;;;;6106876;28;83089;-61
2022/07/14 04:13:45;;;;;;;1.52;1.42;;;23.90;57.80;;;;;;6096437;28;83128;-73
2022/07/14 04:16:46;;;;;;;2.88;1.95;;;23.90;57.80;;;;;;6120692;28;82711;-73
2022/07/14 04:19:48;;;;;;;3.55;2.03;;;23.90;57.80;;;;;;6101291;28;82573;-65
2022/07/14 04:22:49;;;;;;;3.80;1.80;;;23.90;57.70;;;;;;6108231;28;83156;-62
2022/07/14 04:25:51;;;;;;;3.35;1.75;;;23.90;57.70;;;;;;6106290;28;83213;-62
2022/07/14 04:28:52;;;;;;;2.42;1.83;;;23.90;57.70;;;;;;6096591;28;81902;-62
2022/07/14 04:31:52;;;;;;;4.85;1.90;;;23.90;57.60;;;;;;6105830;28;80987;-61
2022/07/14 04:34:57;;;;;;;4.40;1.65;;;23.90;57.70;;;;;;6105006;28;82852;-62
2022/07/14 04:37:57;;;;;;;3.42;1.85;;;23.90;57.80;;;;;;6102527;28;83418;-62
2022/07/14 04:41:06;;;;;;;3.50;1.67;;;23.90;57.80;;;;;;6103338;28;82457;-62
2022/07/14 04:44:10;;;;;;;4.25;1.67;;;23.90;58.00;;;;;;6109466;28;80375;-62
2022/07/14 04:47:16;;;;;;;1.80;1.50;;;23.90;58.10;;;;;;6076163;28;81879;-62
2022/07/14 04:53:36;;;;;;;2.35;1.50;;;23.90;58.40;;;;;;6124062;28;83518;-62
2022/07/14 04:57:03;;;;;;;2.60;1.85;;;23.90;58.70;;;;;;6104112;28;83346;-66
2022/07/14 05:00:24;;;;;;;2.80;1.63;;;23.90;58.70;;;;;;6119526;28;86001;-67
2022/07/14 05:03:25;;;;;;;2.10;1.70;;;23.90;58.40;;;;;;6108848;28;83069;-72
2022/07/14 05:06:26;;;;;;;4.90;1.65;;;23.90;58.50;;;;;;6108149;28;82684;-62
2022/07/14 05:09:32;;;;;;;3.45;2.00;;;23.90;58.50;;;;;;6108582;28;83359;-70
2022/07/14 05:12:33;;;;;;;6.10;1.50;;;23.90;58.30;;;;;;6105798;28;82142;-61
2022/07/14 05:15:34;;;;;;;10.20;2.22;;;23.90;58.30;;;;;;6109353;28;83076;-63
2022/07/14 05:18:36;;;;;;;2.83;1.50;;;23.90;58.40;;;;;;6107327;28;80872;-63
2022/07/14 05:21:37;;;;;;;2.45;1.65;;;24.00;58.00;;;;;;6100834;28;83249;-63
2022/07/14 05:24:37;;;;;;;3.22;1.75;;;24.00;58.10;;;;;;6111202;28;83234;-62
2022/07/14 05:27:38;;;;;;;12.48;1.70;;;24.00;57.90;;;;;;6113612;28;80824;-63
2022/07/14 05:30:39;;;;;;;2.88;1.55;;;24.00;57.90;;;;;;6103772;28;82848;-63
2022/07/14 05:33:40;;;;;;;2.05;1.50;;;24.00;57.90;;;;;;6109134;28;83164;-63
2022/07/14 05:36:42;;;;;;;4.65;1.98;;;24.00;57.90;;;;;;6112556;28;81904;-71
2022/07/14 05:39:43;;;;;;;2.97;1.58;;;24.00;57.90;;;;;;6112463;28;82394;-64
2022/07/14 05:42:44;;;;;;;1.83;1.50;;;24.00;57.80;;;;;;6106274;28;80420;-64
2022/07/14 05:45:44;;;;;;;2.30;1.60;;;24.00;57.80;;;;;;6122950;28;83102;-63
2022/07/14 05:48:45;;;;;;;4.40;1.65;;;24.00;57.90;;;;;;6109417;28;80470;-72
2022/07/14 05:51:46;;;;;;;1.85;1.70;;;24.00;57.90;;;;;;6117812;28;80898;-73
2022/07/14 05:54:47;;;;;;;7.00;2.00;;;24.00;57.90;;;;;;6103702;28;83432;-74
2022/07/14 05:57:49;;;;;;;2.65;1.83;;;24.00;58.00;;;;;;6111310;28;82332;-70
2022/07/14 06:00:49;;;;;;;3.08;1.75;;;24.10;58.20;;;;;;6104260;28;83130;-73
2022/07/14 06:03:56;;;;;;;2.20;1.42;;;24.00;57.60;;;;;;6093218;28;81597;-62
2022/07/14 06:06:57;;;;;;;2.35;1.55;;;23.90;57.80;;;;;;6111140;28;81505;-62
2022/07/14 06:09:58;;;;;;;2.67;1.85;;;23.90;57.90;;;;;;6107988;28;82055;-61
2022/07/14 06:12:59;;;;;;;4.18;1.60;;;23.90;57.70;;;;;;6110377;28;80249;-73
2022/07/14 06:15:59;;;;;;;4.07;2.33;;;23.70;57.70;;;;;;6111216;28;83572;-62
2022/07/14 06:19:00;;;;;;;5.20;1.90;;;23.80;57.70;;;;;;6109790;28;82726;-62
2022/07/14 06:22:01;;;;;;;3.25;2.28;;;23.90;57.80;;;;;;6110626;28;83350;-61
2022/07/14 06:25:03;;;;;;;5.03;2.00;;;24.00;57.50;;;;;;6111233;28;83441;-62
2022/07/14 06:28:05;;;;;;;6.00;2.65;;;24.10;57.80;;;;;;6110923;28;82183;-62
2022/07/14 06:31:06;;;;;;;3.10;1.80;;;24.10;57.50;;;;;;6093350;28;83069;-62
2022/07/14 06:34:06;;;;;;;2.58;1.77;;;24.10;57.60;;;;;;6109327;28;83270;-62
2022/07/14 06:37:16;;;;;;;5.47;1.92;;;24.20;57.90;;;;;;6118107;28;82776;-62
2022/07/14 06:40:16;;;;;;;4.72;1.50;;;24.20;57.70;;;;;;6109677;28;81744;-62
2022/07/14 06:43:19;;;;;;;6.03;1.95;;;24.20;57.70;;;;;;6110208;28;83189;-62
2022/07/14 06:46:28;;;;;;;1.60;1.50;;;24.20;57.50;;;;;;6110096;28;80548;-61
2022/07/14 06:49:28;;;;;;;5.68;3.47;;;24.20;57.60;;;;;;6110799;28;83453;-62
2022/07/14 06:52:29;;;;;;;5.38;3.00;;;24.20;57.70;;;;;;6110229;28;82103;-61
2022/07/14 06:55:29;;;;;;;3.83;2.40;;;24.20;57.60;;;;;;6111548;28;80575;-62
2022/07/14 06:58:30;;;;;;;3.90;2.60;;;24.30;57.60;;;;;;6111740;28;80574;-61
2022/07/14 07:01:30;;;;;;;2.95;1.92;;;24.30;57.90;;;;;;6114521;28;80930;-63
2022/07/14 07:04:31;;;;;;;5.38;2.90;;;24.30;57.50;;;;;;6115459;28;80556;-62
2022/07/14 07:07:31;;;;;;;5.88;2.20;;;24.30;57.70;;;;;;6109249;28;80573;-62
2022/07/14 07:10:32;;;;;;;2.67;1.85;;;24.30;57.50;;;;;;6123279;28;80256;-61
2022/07/14 07:13:32;;;;;;;3.85;2.40;;;24.30;57.60;;;;;;6111702;28;80583;-61
2022/07/14 07:16:33;;;;;;;5.15;2.30;;;24.30;57.40;;;;;;6111589;28;80952;-62
2022/07/14 07:19:33;;;;;;;4.10;2.45;;;24.30;57.50;;;;;;6110883;28;82015;-62
2022/07/14 07:22:34;;;;;;;14.38;2.60;;;24.30;57.40;;;;;;6109318;28;81649;-63
2022/07/14 07:25:34;;;;;;;2.45;2.00;;;24.40;57.60;;;;;;6110772;28;80575;-63
2022/07/14 07:28:35;;;;;;;4.63;2.50;;;24.30;57.30;;;;;;6112208;28;80515;-63
2022/07/14 07:31:35;;;;;;;3.28;1.92;;;24.40;57.30;;;;;;6110869;28;80365;-63
2022/07/14 07:34:36;;;;;;;4.82;2.13;;;24.40;57.20;;;;;;6110760;28;80338;-63
2022/07/14 07:37:37;;;;;;;5.75;1.90;;;24.40;57.20;;;;;;6110561;28;80094;-63
2022/07/14 07:40:38;;;;;;;3.65;2.30;;;24.40;56.90;;;;;;6110820;28;81660;-63
2022/07/14 07:43:38;;;;;;;5.40;2.10;;;24.40;56.80;;;;;;6123916;28;80609;-63
2022/07/14 07:46:39;;;;;;;3.17;2.17;;;24.40;56.70;;;;;;6111119;28;80372;-63
2022/07/14 07:49:39;;;;;;;2.60;1.77;;;24.40;56.30;;;;;;6101524;28;83606;-63
2022/07/14 07:52:40;;;;;;;5.32;2.00;;;24.40;56.10;;;;;;6116626;28;80906;-63
2022/07/14 07:55:40;;;;;;;3.72;2.28;;;24.40;56.20;;;;;;6117658;28;80309;-62
2022/07/14 07:58:40;;;;;;;4.47;2.38;;;24.40;56.10;;;;;;6105561;28;83775;-62
2022/07/14 08:01:41;;;;;;;4.50;2.13;;;24.40;56.30;;;;;;6111563;28;80607;-62
2022/07/14 08:04:41;;;;;;;5.75;2.35;;;24.40;56.20;;;;;;6110353;28;82177;-62
2022/07/14 08:07:42;;;;;;;6.68;2.28;;;24.50;55.90;;;;;;6109183;28;80519;-61
2022/07/14 08:10:43;;;;;;;7.63;2.85;;;24.40;55.70;;;;;;6100018;28;80909;-62
2022/07/14 08:13:43;;;;;;;5.72;2.35;;;24.40;55.50;;;;;;6096589;28;82223;-63
2022/07/14 08:16:44;;;;;;;7.82;2.65;;;24.40;55.40;;;;;;6095258;28;81315;-62
2022/07/14 08:19:45;;;;;;;5.07;2.20;;;24.40;56.20;;;;;;6099099;28;80881;-63
2022/07/14 08:22:45;;;;;;;4.82;2.58;;;24.50;56.20;;;;;;6110583;28;80512;-63
2022/07/14 08:25:46;;;;;;;6.53;2.58;;;24.50;55.80;;;;;;6103153;28;80395;-62
2022/07/14 08:28:46;;;;;;;5.60;2.30;;;24.50;56.00;;;;;;6093556;28;80429;-62
2022/07/14 08:31:47;;;;;;;8.70;2.78;;;24.60;56.20;;;;;;6092776;28;80388;-62
2022/07/14 08:34:47;;;;;;;4.55;2.35;;;24.60;55.70;;;;;;6104419;28;80396;-69
2022/07/14 08:37:48;;;;;;;6.43;3.05;;;24.60;55.80;;;;;;6123081;28;81370;-69
2022/07/14 08:40:48;;;;;;;4.00;2.15;;;24.60;55.80;;;;;;6102527;28;81041;-76
2022/07/14 08:43:48;;;;;;;5.82;2.50;;;24.70;56.40;;;;;;6098677;28;80887;-79
2022/07/14 08:46:50;;;;;;;2.92;2.45;;;24.80;55.70;;;;;;6095021;28;81298;-78
2022/07/14 08:49:50;;;;;;;4.07;2.72;;;24.90;55.90;;;;;;6100243;28;80650;-73
2022/07/14 08:52:52;;;;;;;6.47;2.80;;;24.90;56.10;;;;;;6105542;28;80675;-69
2022/07/14 08:55:52;;;;;;;13.85;3.65;;;24.90;56.30;;;;;;6104824;28;80602;-71
2022/07/14 08:58:53;;;;;;;18.67;3.47;;;24.90;57.10;;;;;;6113297;28;86178;-68
2022/07/14 09:01:53;;;;;;;6.75;3.65;;;24.90;57.10;;;;;;6113697;28;80919;-62
2022/07/14 09:04:54;;;;;;;5.28;2.92;;;25.00;56.40;;;;;;6104887;28;80355;-62
2022/07/14 09:07:56;;;;;;;3.38;2.42;;;25.20;56.10;;;;;;6102848;28;81041;-63
2022/07/14 09:10:56;;;;;;;6.70;2.90;;;25.20;56.10;;;;;;6100194;28;80818;-62
2022/07/14 09:13:56;;;;;;;3.97;2.20;;;25.20;56.50;;;;;;6109559;28;81447;-63
2022/07/14 09:16:57;;;;;;;3.10;2.25;;;25.30;56.50;;;;;;6112588;28;80646;-62
2022/07/14 09:19:57;;;;;;;6.15;2.95;;;25.40;56.30;;;;;;6090460;28;83260;-62
2022/07/14 09:22:58;;;;;;;4.60;2.60;;;25.40;56.90;;;;;;6101606;28;80659;-71
2022/07/14 09:25:58;;;;;;;4.30;2.95;;;25.50;56.10;;;;;;6114753;28;80280;-71
2022/07/14 09:29:00;;;;;;;6.35;3.22;;;25.40;56.30;;;;;;6113561;28;81373;-65
2022/07/14 09:32:00;;;;;;;8.57;3.67;;;25.40;56.30;;;;;;6110621;28;80378;-68
2022/07/14 09:35:01;;;;;;;8.73;3.70;;;25.40;56.50;;;;;;6108686;28;81267;-66
2022/07/14 09:38:01;;;;;;;9.27;4.20;;;25.40;56.70;;;;;;6117451;28;80642;-62
2022/07/14 09:41:02;;;;;;;7.30;2.90;;;25.40;56.80;;;;;;6107803;28;80587;-62
2022/07/14 09:44:02;;;;;;;4.40;2.95;;;25.40;57.10;;;;;;6125690;28;80335;-62
2022/07/14 09:47:02;;;;;;;4.88;2.90;;;25.40;57.50;;;;;;6111873;28;81505;-62
2022/07/14 09:50:03;;;;;;;4.50;3.28;;;25.30;57.20;;;;;;6105377;28;84383;-63
2022/07/14 09:53:03;;;;;;;6.93;2.92;;;25.40;56.90;;;;;;6123228;28;80386;-63
2022/07/14 09:56:04;;;;;;;5.03;2.60;;;25.30;57.00;;;;;;6116017;28;80468;-63
2022/07/14 09:59:04;;;;;;;6.82;3.58;;;25.50;57.30;;;;;;6113686;28;80427;-63
2022/07/14 10:02:05;;;;;;;4.43;3.45;;;25.60;57.40;;;;;;6113955;28;80400;-63
2022/07/14 10:05:07;;;;;;;5.30;3.22;;;25.70;57.10;;;;;;6119616;28;80575;-63
2022/07/14 10:08:08;;;;;;;4.68;3.17;;;25.70;57.30;;;;;;6112468;28;80685;-64
2022/07/14 10:11:08;;;;;;;7.07;3.40;;;25.60;57.10;;;;;;6103903;28;80895;-62
2022/07/14 10:14:09;;;;;;;4.88;3.35;;;25.50;57.50;;;;;;6111183;28;80351;-61
2022/07/14 10:17:09;;;;;;;10.68;4.85;;;25.50;57.40;;;;;;6096242;28;81501;-62
2022/07/14 10:20:10;;;;;;;5.10;3.67;;;25.60;57.40;;;;;;6110243;28;80920;-62
2022/07/14 10:23:10;;;;;;;5.03;3.55;;;25.60;57.30;;;;;;6099865;28;80252;-63
2022/07/14 10:26:11;;;;;;;4.95;3.53;;;25.50;57.90;;;;;;6110897;28;80181;-62
2022/07/14 10:29:11;;;;;;;6.65;3.80;;;25.50;57.40;;;;;;6107898;28;80683;-63
2022/07/14 10:32:12;;;;;;;3.33;2.78;;;25.50;57.80;;;;;;6113167;28;80180;-63
2022/07/14 10:35:12;;;;;;;3.65;3.30;;;25.50;57.50;;;;;;6112770;28;80851;-63
2022/07/14 10:38:13;;;;;;;5.43;3.40;;;25.50;57.30;;;;;;6108077;28;81451;-63
2022/07/14 10:41:13;;;;;;;5.50;2.90;;;25.50;57.00;;;;;;6108155;28;90920;-64
2022/07/14 10:44:14;;;;;;;5.97;2.90;;;25.50;56.90;;;;;;6112543;28;80395;-64
2022/07/14 10:47:14;;;;;;;3.67;2.72;;;25.50;57.00;;;;;;6106997;28;80410;-70
2022/07/14 10:50:15;;;;;;;4.75;2.90;;;25.50;56.70;;;;;;6121826;28;81075;-73
2022/07/14 10:53:15;;;;;;;5.07;2.65;;;25.50;57.40;;;;;;6113222;28;81766;-64
2022/07/14 10:56:16;;;;;;;5.68;2.83;;;25.50;57.50;;;;;;6112399;28;80577;-64
2022/07/14 10:59:16;;;;;;;3.50;2.97;;;25.50;56.60;;;;;;6112396;28;79995;-64
2022/07/14 11:02:18;;;;;;;4.43;2.90;;;25.50;56.80;;;;;;6106270;28;81853;-65
2022/07/14 11:05:19;;;;;;;4.63;2.60;;;25.50;56.60;;;;;;6104473;28;80890;-67
2022/07/14 11:08:19;;;;;;;5.13;3.08;;;25.50;56.50;;;;;;6111393;28;80862;-64
2022/07/14 11:11:19;;;;;;;7.35;3.05;;;25.50;56.30;;;;;;6109450;28;81521;-64
2022/07/14 11:14:20;;;;;;;4.93;2.97;;;25.50;56.50;;;;;;6108562;28;80731;-64
2022/07/14 11:17:20;;;;;;;4.00;2.83;;;25.50;55.90;;;;;;6107879;28;80233;-64
2022/07/14 11:20:21;;;;;;;5.57;3.00;;;25.50;55.80;;;;;;6109016;28;80329;-64
2022/07/14 11:23:21;;;;;;;3.00;2.50;;;25.50;56.00;;;;;;6097689;28;80374;-64
2022/07/14 11:26:22;;;;;;;3.30;2.75;;;25.50;55.70;;;;;;6110385;28;80536;-64
2022/07/14 11:29:22;;;;;;;4.85;2.80;;;25.50;55.50;;;;;;6115229;28;80489;-64
2022/07/14 11:32:23;;;;;;;3.83;2.97;;;25.50;55.50;;;;;;6111526;28;81206;-65
2022/07/14 11:38:43;;;;;;;4.90;2.75;;;25.50;55.60;;;;;;6100349;28;81250;-63
2022/07/14 11:41:44;;;;;;;2.40;2.20;;;25.60;55.70;;;;;;6110800;28;80621;-62
2022/07/14 11:44:45;;;;;;;5.00;2.92;;;25.70;55.40;;;;;;6112288;28;81105;-63
2022/07/14 11:47:45;;;;;;;4.20;2.80;;;25.80;55.80;;;;;;6111755;28;80409;-63
2022/07/14 11:50:46;;;;;;;4.85;3.65;;;25.70;55.70;;;;;;6113352;28;80355;-63
2022/07/14 11:53:46;;;;;;;6.55;3.25;;;25.90;55.20;;;;;;6111748;28;80344;-63
2022/07/14 11:56:48;;;;;;;5.15;3.33;;;25.80;54.70;;;;;;6111302;28;80206;-63
2022/07/14 11:59:48;;;;;;;3.63;2.60;;;25.70;55.20;;;;;;6114479;28;80415;-63
2022/07/14 12:02:48;;;;;;;6.03;2.90;;;25.70;55.40;;;;;;6112110;28;82502;-63
2022/07/14 12:05:50;;;;;;;11.48;3.17;;;25.70;55.50;;;;;;6125853;28;80859;-68
2022/07/14 12:08:52;;;;;;;2.97;2.67;;;25.70;55.90;;;;;;6099463;28;80476;-64
2022/07/14 12:11:52;;;;;;;3.30;2.38;;;25.70;56.10;;;;;;6104739;28;83215;-68
2022/07/14 12:14:53;;;;;;;5.65;2.60;;;25.70;56.20;;;;;;6103662;28;80609;-71
2022/07/14 12:17:53;;;;;;;5.50;3.40;;;25.70;55.80;;;;;;6111032;28;80547;-71
2022/07/14 12:20:54;;;;;;;15.77;7.82;;;25.70;56.20;;;;;;6108912;28;81627;-74
2022/07/14 12:23:54;;;;;;;30.95;12.40;;;25.60;56.40;;;;;;6101989;28;80637;-72
2022/07/14 12:26:55;;;;;;;24.50;10.90;;;25.60;55.90;;;;;;6103734;28;83306;-70
2022/07/14 12:29:56;;;;;;;26.50;9.75;;;25.60;55.80;;;;;;6104369;28;83147;-69
2022/07/14 12:32:56;;;;;;;23.08;10.68;;;25.70;56.80;;;;;;6116775;28;82982;-73
2022/07/14 12:35:56;;;;;;;33.10;14.45;;;25.70;55.90;;;;;;6127371;28;82746;-69
2022/07/14 12:38:57;;;;;;;30.08;13.25;;;25.70;56.20;;;;;;6107621;28;83117;-71
2022/07/14 12:41:58;;;;;;;24.58;11.02;;;25.60;55.90;;;;;;6111524;28;83719;-73
2022/07/14 12:44:59;;;;;;;25.00;10.77;;;25.60;55.80;;;;;;6108783;28;82973;-71
2022/07/14 12:48:03;;;;;;;20.42;7.80;;;25.70;55.70;;;;;;6108740;28;83692;-64
2022/07/14 12:51:03;;;;;;;7.40;4.80;;;25.70;56.10;;;;;;6113496;28;83411;-71
2022/07/14 12:54:03;;;;;;;12.57;5.47;;;25.80;55.50;;;;;;6116690;28;80998;-64
2022/07/14 12:57:04;;;;;;;10.55;4.45;;;25.80;55.90;;;;;;6123313;28;80560;-63
2022/07/14 13:00:05;;;;;;;6.97;3.45;;;25.70;55.50;;;;;;6109146;28;80331;-63
2022/07/14 13:03:05;;;;;;;5.35;3.35;;;25.70;55.30;;;;;;6111467;28;80616;-64
2022/07/14 13:06:06;;;;;;;5.60;3.60;;;25.70;55.90;;;;;;6113034;28;80302;-64
2022/07/14 13:09:06;;;;;;;7.13;3.83;;;25.70;55.40;;;;;;6113437;28;80295;-64
2022/07/14 13:12:07;;;;;;;5.18;3.50;;;25.70;55.70;;;;;;6114164;28;80483;-64
2022/07/14 13:15:07;;;;;;;4.53;3.20;;;25.60;55.70;;;;;;6116468;28;80627;-64
2022/07/14 13:18:08;;;;;;;5.78;3.22;;;25.60;55.70;;;;;;6117202;28;81384;-64
2022/07/14 13:21:08;;;;;;;5.85;3.13;;;25.60;55.70;;;;;;6103611;28;80474;-64
2022/07/14 13:24:09;;;;;;;5.28;2.70;;;25.60;56.00;;;;;;6108810;28;80692;-73
2022/07/14 13:27:09;;;;;;;7.90;3.33;;;25.60;56.20;;;;;;6110571;28;80375;-65
2022/07/14 13:30:10;;;;;;;9.32;2.75;;;25.50;56.30;;;;;;6112733;28;81325;-72
2022/07/14 13:33:10;;;;;;;14.63;3.17;;;25.50;56.60;;;;;;6114216;28;80203;-65
2022/07/14 13:36:10;;;;;;;5.38;3.08;;;25.50;56.50;;;;;;6111791;28;81871;-64
2022/07/14 13:39:11;;;;;;;7.72;2.95;;;25.50;56.80;;;;;;6104203;28;81633;-63
2022/07/14 13:42:11;;;;;;;5.18;2.78;;;25.50;56.40;;;;;;6099177;28;81389;-63
2022/07/14 13:45:12;;;;;;;10.35;3.83;;;25.50;56.40;;;;;;6117208;28;80514;-63
2022/07/14 13:48:12;;;;;;;4.38;3.63;;;25.40;56.50;;;;;;6112112;28;80891;-64
2022/07/14 13:54:32;;;;;;;9.15;5.97;;;25.50;57.50;;;;;;6099457;28;84939;-63
2022/07/14 13:57:33;;;;;;;8.18;4.95;;;25.50;57.60;;;;;;6103983;28;81060;-62
2022/07/14 14:00:33;;;;;;;6.18;4.25;;;25.50;57.70;;;;;;6095644;28;80726;-62
2022/07/14 14:03:34;;;;;;;13.50;8.70;;;25.50;57.70;;;;;;6091970;28;80453;-62
2022/07/14 14:06:34;;;;;;;9.13;6.40;;;25.50;58.40;;;;;;6093415;28;81589;-63
2022/07/14 14:09:35;;;;;;;9.60;6.75;;;25.50;58.30;;;;;;6108192;28;82113;-64
2022/07/14 14:12:36;;;;;;;14.77;10.80;;;25.50;58.60;;;;;;6093599;28;80384;-63
2022/07/14 14:15:36;;;;;;;16.88;8.85;;;25.40;59.40;;;;;;6090307;28;83827;-63
2022/07/14 14:18:37;;;;;;;21.27;8.55;;;25.40;60.80;;;;;;6093949;28;83214;-63
2022/07/14 14:21:37;;;;;;;11.57;7.30;;;25.40;65.70;;;;;;6110201;28;80696;-63
2022/07/14 14:24:38;;;;;;;11.02;7.10;;;25.40;64.70;;;;;;6109131;28;80277;-62
2022/07/14 14:27:38;;;;;;;13.10;7.88;;;25.40;64.60;;;;;;6105015;28;80449;-63
2022/07/14 14:30:39;;;;;;;13.52;7.32;;;25.40;64.90;;;;;;6098489;28;80413;-62
2022/07/14 14:33:39;;;;;;;17.73;8.65;;;25.50;65.00;;;;;;6101549;28;82002;-62
2022/07/14 14:36:41;;;;;;;11.35;5.60;;;25.40;66.40;;;;;;6095314;28;86932;-63
2022/07/14 14:39:41;;;;;;;10.48;5.70;;;25.50;68.20;;;;;;6100320;28;80835;-62
2022/07/14 14:42:42;;;;;;;9.70;4.68;;;25.30;70.90;;;;;;6106246;28;80351;-63
2022/07/14 14:45:42;;;;;;;7.55;4.35;;;25.30;74.20;;;;;;6112183;28;80516;-65
2022/07/14 14:48:43;;;;;;;10.85;5.03;;;25.10;75.40;;;;;;6098284;28;81146;-67
2022/07/14 14:51:43;;;;;;;11.75;4.85;;;25.20;75.40;;;;;;6114230;28;80353;-68
2022/07/14 14:54:44;;;;;;;13.10;4.82;;;25.10;75.70;;;;;;6094919;28;80560;-65
2022/07/14 14:57:45;;;;;;;11.40;4.78;;;25.20;76.70;;;;;;6102032;28;80415;-64
2022/07/14 15:00:45;;;;;;;11.85;4.80;;;25.20;76.30;;;;;;6107745;28;80636;-64
2022/07/14 15:03:47;;;;;;;12.45;5.13;;;25.30;75.60;;;;;;6106107;28;82171;-63
2022/07/14 15:06:47;;;;;;;10.13;4.00;;;25.30;75.30;;;;;;6112273;28;80581;-62
2022/07/14 15:09:50;;;;;;;14.20;5.00;;;25.30;74.90;;;;;;6107600;28;80915;-66
2022/07/14 15:12:50;;;;;;;9.65;3.97;;;25.40;74.90;;;;;;6100820;28;81633;-63
2022/07/14 15:15:51;;;;;;;10.50;3.90;;;25.40;74.60;;;;;;6110263;28;80866;-61
2022/07/14 15:18:51;;;;;;;13.07;4.50;;;25.40;74.70;;;;;;6108936;28;81056;-64
2022/07/14 15:21:53;;;;;;;8.05;3.28;;;25.40;74.20;;;;;;6109421;28;80434;-63
2022/07/14 15:24:53;;;;;;;8.23;4.05;;;25.40;74.10;;;;;;6114512;28;83558;-63
2022/07/14 15:27:54;;;;;;;9.27;3.35;;;25.30;73.30;;;;;;6119860;28;80321;-63
2022/07/14 15:30:57;;;;;;;11.45;3.85;;;25.40;73.10;;;;;;6106010;28;80471;-71
2022/07/14 15:33:57;;;;;;;6.47;3.28;;;25.40;73.00;;;;;;6102914;28;81566;-63
2022/07/14 15:36:58;;;;;;;7.95;3.35;;;25.30;73.20;;;;;;6101037;28;80594;-63
2022/07/14 15:43:18;;;;;;;8.13;3.17;;;25.40;74.00;;;;;;6102182;28;80515;-63
2022/07/14 15:46:18;;;;;;;9.23;3.55;;;25.30;75.60;;;;;;6101240;28;80550;-62
2022/07/14 15:49:19;;;;;;;5.22;3.40;;;25.30;74.50;;;;;;6106566;28;81555;-63
2022/07/14 15:52:19;;;;;;;8.55;3.42;;;25.30;76.70;;;;;;6113467;28;81954;-62
2022/07/14 15:55:20;;;;;;;8.30;3.83;;;25.30;77.30;;;;;;6118463;28;80853;-63
2022/07/14 15:58:20;;;;;;;6.82;3.22;;;25.30;77.90;;;;;;6099359;28;81047;-62